createdAt,value
2023-04-29T00:00:37.528Z,11.20
2023-04-29T00:03:05.901Z,11.20
2023-04-29T00:05:33.868Z,11.20
2023-04-29T00:08:01.771Z,11.10
2023-04-29T00:10:30.018Z,11.10
2023-04-29T00:12:57.655Z,11.00
2023-04-29T00:15:26.196Z,11.00
2023-04-29T00:17:53.987Z,11.10
2023-04-29T00:20:22.131Z,11.00
2023-04-29T00:22:50.042Z,11.00
2023-04-29T00:25:18.056Z,10.90
2023-04-29T00:27:46.153Z,10.90
2023-04-29T00:30:14.061Z,10.90
2023-04-29T00:32:41.936Z,10.90
2023-04-29T00:35:10.953Z,10.90
2023-04-29T00:37:39.069Z,10.90
2023-04-29T00:40:09.463Z,10.90
2023-04-29T00:42:37.588Z,10.80
2023-04-29T00:45:08.177Z,10.80
2023-04-29T00:47:36.274Z,10.80
2023-04-29T00:50:07.863Z,10.70
2023-04-29T00:52:38.424Z,10.70
2023-04-29T00:55:09.168Z,10.60
2023-04-29T00:57:37.004Z,10.60
2023-04-29T01:00:06.073Z,10.60
2023-04-29T01:02:35.980Z,10.60
2023-04-29T01:05:04.061Z,10.60
2023-04-29T01:08:21.737Z,10.60
2023-04-29T01:11:10.028Z,10.50
2023-04-29T01:14:03.278Z,10.50
2023-04-29T01:17:05.801Z,10.50
2023-04-29T01:19:58.245Z,10.50
2023-04-29T01:22:26.450Z,10.50
2023-04-29T01:24:55.077Z,10.40
2023-04-29T01:28:27.409Z,10.40
2023-04-29T01:31:26.826Z,10.40
2023-04-29T01:35:12.470Z,10.30
2023-04-29T01:38:44.679Z,10.20
2023-04-29T01:41:35.309Z,10.10
2023-04-29T01:44:24.667Z,10.10
2023-04-29T01:46:55.435Z,10.00
2023-04-29T01:49:30.314Z,10.00
2023-04-29T01:51:58.059Z,10.00
2023-04-29T01:54:26.105Z,10.00
2023-04-29T01:56:55.190Z,10.00
2023-04-29T01:59:29.745Z,9.90
2023-04-29T02:02:21.420Z,10.00
2023-04-29T02:04:57.947Z,9.90
2023-04-29T02:07:26.518Z,9.90
2023-04-29T02:09:54.552Z,9.90
2023-04-29T02:12:23.924Z,9.90
2023-04-29T02:14:54.978Z,9.90
2023-04-29T02:17:22.970Z,9.90
2023-04-29T02:19:50.956Z,9.90
2023-04-29T02:22:18.923Z,9.90
2023-04-29T02:24:46.716Z,9.90
2023-04-29T02:27:14.565Z,9.80
2023-04-29T02:29:42.882Z,9.80
2023-04-29T02:32:10.915Z,9.80
2023-04-29T02:34:39.299Z,9.70
2023-04-29T02:37:07.008Z,9.70
2023-04-29T02:39:34.930Z,9.80
2023-04-29T02:42:03.106Z,9.70
2023-04-29T02:44:31.561Z,9.70
2023-04-29T02:46:59.590Z,9.60
2023-04-29T02:49:28.110Z,9.70
2023-04-29T02:51:55.785Z,9.60
2023-04-29T02:54:24.485Z,9.60
2023-04-29T02:56:52.142Z,9.60
2023-04-29T02:59:19.821Z,9.60
2023-04-29T03:01:47.770Z,9.60
2023-04-29T03:04:15.597Z,9.60
2023-04-29T03:06:43.907Z,9.60
2023-04-29T03:09:14.497Z,9.60
2023-04-29T03:11:45.232Z,9.50
2023-04-29T03:14:13.058Z,9.60
2023-04-29T03:16:41.691Z,9.50
2023-04-29T03:19:10.592Z,9.60
2023-04-29T03:21:38.280Z,9.60
2023-04-29T03:24:06.805Z,9.60
2023-04-29T03:26:35.691Z,9.50
2023-04-29T03:29:04.764Z,9.60
2023-04-29T03:31:32.533Z,9.60
2023-04-29T03:34:00.637Z,9.60
2023-04-29T03:36:29.023Z,9.50
2023-04-29T03:39:03.726Z,9.50
2023-04-29T03:41:31.798Z,9.50
2023-04-29T03:44:01.019Z,9.50
2023-04-29T03:46:30.901Z,9.50
2023-04-29T03:48:58.817Z,9.50
2023-04-29T03:51:28.206Z,9.50
2023-04-29T03:54:06.088Z,9.60
2023-04-29T03:56:34.026Z,9.50
2023-04-29T03:59:02.124Z,9.50
2023-04-29T04:01:31.594Z,9.50
2023-04-29T04:03:59.713Z,9.50
2023-04-29T04:06:27.892Z,9.50
2023-04-29T04:08:56.165Z,9.50
2023-04-29T04:11:29.343Z,9.50
2023-04-29T04:14:00.298Z,9.50
2023-04-29T04:16:28.258Z,9.50
2023-04-29T04:18:56.199Z,9.50
2023-04-29T04:21:24.414Z,9.50
2023-04-29T04:24:01.522Z,9.50
2023-04-29T04:26:30.919Z,9.50
2023-04-29T04:28:58.647Z,9.40
2023-04-29T04:31:33.108Z,9.40
2023-04-29T04:34:00.897Z,9.40
2023-04-29T04:36:30.044Z,9.50
2023-04-29T04:38:57.850Z,9.40
2023-04-29T04:41:26.466Z,9.40
2023-04-29T04:43:54.784Z,9.50
2023-04-29T04:46:35.431Z,9.50
2023-04-29T04:49:12.747Z,9.50
2023-04-29T04:51:47.433Z,9.40
2023-04-29T04:54:15.459Z,9.50
2023-04-29T04:56:43.980Z,9.50
2023-04-29T04:59:12.435Z,9.40
2023-04-29T05:01:41.575Z,9.40
2023-04-29T05:04:09.761Z,9.50
2023-04-29T05:06:37.733Z,9.50
2023-04-29T05:09:05.656Z,9.50
2023-04-29T05:11:33.696Z,9.50
2023-04-29T05:14:21.597Z,9.50
2023-04-29T05:16:49.740Z,9.50
2023-04-29T05:19:17.375Z,9.50
2023-04-29T05:21:46.217Z,9.50
2023-04-29T05:24:14.085Z,9.50
2023-04-29T05:26:43.769Z,9.50
2023-04-29T05:29:12.421Z,9.50
2023-04-29T05:31:48.731Z,9.50
2023-04-29T05:34:16.798Z,9.50
2023-04-29T05:36:44.558Z,9.60
2023-04-29T05:39:12.409Z,9.50
2023-04-29T05:41:40.438Z,9.50
2023-04-29T05:44:15.804Z,9.50
2023-04-29T05:46:43.530Z,9.60
2023-04-29T05:49:11.291Z,9.60
2023-04-29T05:51:39.306Z,9.60
2023-04-29T05:54:07.016Z,9.60
2023-04-29T05:56:35.016Z,9.60
2023-04-29T05:59:02.800Z,9.60
2023-04-29T06:01:31.649Z,9.60
2023-04-29T06:04:00.282Z,9.70
2023-04-29T06:06:57.682Z,9.70
2023-04-29T06:09:44.828Z,9.70
2023-04-29T06:12:13.348Z,9.70
2023-04-29T06:14:43.455Z,9.70
2023-04-29T06:17:12.609Z,9.70
2023-04-29T06:19:40.471Z,9.70
2023-04-29T06:22:10.676Z,9.70
2023-04-29T06:24:43.496Z,9.70
2023-04-29T06:27:13.489Z,9.70
2023-04-29T06:29:41.497Z,9.70
2023-04-29T06:32:09.707Z,9.70
2023-04-29T06:34:39.706Z,9.70
2023-04-29T06:37:39.958Z,9.60
2023-04-29T06:40:15.837Z,9.60
2023-04-29T06:43:02.538Z,9.50
2023-04-29T06:46:02.742Z,9.60
2023-04-29T06:48:37.360Z,9.50
2023-04-29T06:51:05.335Z,9.50
2023-04-29T06:53:36.930Z,9.60
2023-04-29T06:56:07.112Z,9.50
2023-04-29T06:58:34.924Z,9.60
2023-04-29T07:01:04.391Z,9.60
2023-04-29T07:03:32.601Z,9.60
2023-04-29T07:06:00.634Z,9.60
2023-04-29T07:08:28.918Z,9.60
2023-04-29T07:10:58.753Z,9.60
2023-04-29T07:13:27.038Z,9.60
2023-04-29T07:15:54.754Z,9.60
2023-04-29T07:18:23.664Z,9.60
2023-04-29T07:20:53.017Z,9.60
2023-04-29T07:23:21.049Z,9.70
2023-04-29T07:25:48.818Z,9.70
2023-04-29T07:28:17.335Z,9.70
2023-04-29T07:30:46.184Z,9.80
2023-04-29T07:33:13.912Z,9.90
2023-04-29T07:35:43.388Z,9.80
2023-04-29T07:38:11.430Z,9.80
2023-04-29T07:40:39.117Z,9.80
2023-04-29T07:43:09.253Z,9.80
2023-04-29T07:45:37.313Z,9.80
2023-04-29T07:48:05.976Z,9.90
2023-04-29T07:50:37.378Z,10.00
2023-04-29T07:53:06.345Z,9.90
2023-04-29T07:55:34.209Z,9.90
2023-04-29T07:58:02.359Z,9.80
2023-04-29T08:00:30.451Z,9.90
2023-04-29T08:02:58.705Z,9.80
2023-04-29T08:05:27.922Z,9.90
2023-04-29T08:07:56.378Z,9.90
2023-04-29T08:10:27.393Z,10.00
2023-04-29T08:12:56.255Z,10.00
2023-04-29T08:15:24.399Z,10.00
2023-04-29T08:17:54.468Z,10.00
2023-04-29T08:20:22.623Z,10.00
2023-04-29T08:22:50.537Z,10.00
2023-04-29T08:25:18.479Z,10.00
2023-04-29T08:27:46.492Z,10.00
2023-04-29T08:30:14.852Z,10.10
2023-04-29T08:32:42.814Z,10.30
2023-04-29T08:35:11.107Z,10.20
2023-04-29T08:37:38.991Z,10.30
2023-04-29T08:40:09.953Z,10.20
2023-04-29T08:42:38.733Z,10.40
2023-04-29T08:45:08.059Z,10.50
2023-04-29T08:47:37.285Z,10.50
2023-04-29T08:50:08.360Z,10.40
2023-04-29T08:52:36.352Z,10.40
2023-04-29T08:55:05.868Z,10.60
2023-04-29T08:57:40.018Z,10.70
2023-04-29T09:00:13.385Z,10.80
2023-04-29T09:03:13.204Z,10.90
2023-04-29T09:05:46.069Z,10.90
2023-04-29T09:08:17.214Z,10.70
2023-04-29T09:10:45.261Z,10.60
2023-04-29T09:13:30.660Z,10.70
2023-04-29T09:15:59.569Z,10.90
2023-04-29T09:18:51.208Z,10.90
2023-04-29T09:21:27.389Z,10.90
2023-04-29T09:24:04.263Z,11.10
2023-04-29T09:26:44.005Z,11.20
2023-04-29T09:29:18.453Z,11.10
2023-04-29T09:31:48.124Z,11.30
2023-04-29T09:34:16.675Z,11.50
2023-04-29T09:36:59.003Z,11.50
2023-04-29T09:39:27.200Z,11.70
2023-04-29T09:41:55.021Z,11.70
2023-04-29T09:44:36.027Z,11.70
2023-04-29T09:47:09.347Z,11.60
2023-04-29T09:49:45.411Z,11.60
2023-04-29T09:52:18.391Z,11.70
2023-04-29T09:54:47.115Z,11.70
2023-04-29T09:57:19.005Z,11.90
2023-04-29T09:59:47.041Z,12.10
2023-04-29T10:02:19.457Z,12.50
2023-04-29T10:04:59.318Z,12.60
2023-04-29T10:07:29.478Z,12.70
2023-04-29T10:09:59.022Z,12.20
2023-04-29T10:12:27.115Z,12.50
2023-04-29T10:15:44.310Z,12.70
2023-04-29T10:18:30.556Z,13.20
2023-04-29T10:21:03.217Z,13.60
2023-04-29T10:23:33.740Z,13.50
2023-04-29T10:26:04.354Z,13.50
2023-04-29T10:28:33.511Z,13.20
2023-04-29T10:31:04.954Z,13.10
2023-04-29T10:33:34.019Z,13.20
2023-04-29T10:36:04.621Z,13.30
2023-04-29T10:38:52.040Z,13.50
2023-04-29T10:41:37.730Z,13.70
2023-04-29T10:44:06.039Z,14.00
2023-04-29T10:46:33.991Z,14.30
2023-04-29T10:49:06.941Z,14.30
2023-04-29T10:51:45.979Z,13.90
2023-04-29T10:54:25.866Z,14.30
2023-04-29T10:56:54.615Z,14.20
2023-04-29T10:59:44.048Z,13.80
2023-04-29T11:02:12.379Z,13.80
2023-04-29T11:05:11.502Z,13.90
2023-04-29T11:07:39.576Z,13.90
2023-04-29T11:10:09.322Z,14.00
2023-04-29T11:12:37.340Z,13.60
2023-04-29T11:15:11.375Z,13.60
2023-04-29T11:17:39.545Z,13.60
2023-04-29T11:20:14.789Z,13.70
2023-04-29T11:22:52.301Z,13.90
2023-04-29T11:25:20.560Z,13.80
2023-04-29T11:27:51.514Z,13.90
2023-04-29T11:30:21.345Z,14.20
2023-04-29T11:32:51.153Z,14.90
2023-04-29T11:35:22.097Z,14.90
2023-04-29T11:37:49.858Z,15.00
2023-04-29T11:40:17.567Z,15.10
2023-04-29T11:42:49.364Z,15.00
2023-04-29T11:45:20.976Z,14.40
2023-04-29T11:47:49.972Z,14.00
2023-04-29T11:50:20.597Z,14.00
2023-04-29T11:52:50.295Z,14.40
2023-04-29T11:55:20.205Z,14.90
2023-04-29T11:57:52.513Z,14.40
2023-04-29T12:00:21.161Z,14.80
2023-04-29T12:02:49.247Z,15.20
2023-04-29T12:05:19.397Z,16.00
2023-04-29T12:07:51.184Z,15.40
2023-04-29T12:10:19.407Z,15.20
2023-04-29T12:12:48.453Z,15.50
2023-04-29T12:15:16.474Z,15.30
2023-04-29T12:17:46.538Z,15.00
2023-04-29T12:20:15.484Z,14.90
2023-04-29T12:22:44.208Z,14.60
2023-04-29T12:25:12.481Z,14.50
2023-04-29T12:27:43.397Z,14.30
2023-04-29T12:30:13.270Z,14.10
2023-04-29T12:32:42.046Z,14.10
2023-04-29T12:35:18.747Z,13.90
2023-04-29T12:37:51.587Z,13.80
2023-04-29T12:40:21.046Z,13.80
2023-04-29T12:42:49.655Z,13.80
2023-04-29T12:45:35.103Z,13.80
2023-04-29T12:48:08.995Z,13.70
2023-04-29T12:50:43.029Z,13.50
2023-04-29T12:53:11.864Z,13.30
2023-04-29T12:55:40.186Z,13.40
2023-04-29T12:58:09.470Z,13.50
2023-04-29T13:00:38.107Z,13.70
2023-04-29T13:03:07.475Z,13.90
2023-04-29T13:05:36.096Z,14.10
2023-04-29T13:08:08.364Z,14.20
2023-04-29T13:10:36.786Z,14.20
2023-04-29T13:13:04.457Z,14.40
2023-04-29T13:15:33.482Z,14.40
2023-04-29T13:18:02.194Z,14.50
2023-04-29T13:20:29.909Z,14.40
2023-04-29T13:22:57.574Z,14.40
2023-04-29T13:25:25.362Z,14.30
2023-04-29T13:27:53.668Z,14.50
2023-04-29T13:30:21.506Z,14.60
2023-04-29T13:32:54.873Z,14.60
2023-04-29T13:35:23.216Z,14.70
2023-04-29T13:37:51.029Z,15.10
2023-04-29T13:40:20.969Z,15.80
2023-04-29T13:42:53.350Z,16.20
2023-04-29T13:45:30.579Z,16.20
2023-04-29T13:48:09.334Z,15.80
2023-04-29T14:03:20.687Z,15.00
2023-04-29T14:05:48.926Z,14.80
2023-04-29T14:08:16.750Z,14.90
2023-04-29T14:10:44.364Z,14.90
2023-04-29T14:13:12.151Z,14.70
2023-04-29T14:15:39.901Z,14.80
2023-04-29T14:18:09.666Z,14.50
2023-04-29T14:20:37.875Z,14.70
2023-04-29T14:23:06.189Z,15.00
2023-04-29T14:25:34.092Z,15.10
2023-04-29T14:28:01.936Z,15.30
2023-04-29T14:30:30.502Z,14.90
2023-04-29T14:32:58.535Z,14.80
2023-04-29T14:35:26.409Z,14.60
2023-04-29T14:37:54.089Z,14.70
2023-04-29T14:40:22.054Z,14.70
2023-04-29T14:42:49.748Z,14.70
2023-04-29T14:45:17.754Z,14.60
2023-04-29T14:47:46.007Z,14.50
2023-04-29T14:50:13.963Z,14.70
2023-04-29T14:52:42.060Z,15.00
2023-04-29T14:55:09.797Z,15.10
2023-04-29T14:57:37.463Z,14.90
2023-04-29T15:00:08.391Z,15.30
2023-04-29T15:02:36.283Z,15.50
2023-04-29T15:05:05.367Z,16.00
2023-04-29T15:07:33.802Z,16.30
2023-04-29T15:10:02.043Z,16.80
2023-04-29T15:12:29.946Z,16.60
2023-04-29T15:14:57.692Z,16.40
2023-04-29T15:17:25.744Z,15.90
2023-04-29T15:19:53.670Z,15.70
2023-04-29T15:22:21.378Z,15.50
2023-04-29T15:27:21.812Z,15.40
2023-04-29T15:29:49.625Z,15.70
2023-04-29T15:32:17.534Z,15.70
2023-04-29T15:34:45.878Z,15.70
2023-04-29T15:37:13.453Z,15.70
2023-04-29T15:39:41.069Z,15.50
2023-04-29T15:42:09.588Z,15.50
2023-04-29T15:44:37.220Z,15.60
2023-04-29T15:47:04.862Z,15.70
2023-04-29T15:49:32.699Z,15.50
2023-04-29T15:52:01.057Z,15.40
2023-04-29T15:54:28.826Z,15.30
2023-04-29T15:56:57.248Z,15.10
2023-04-29T15:59:24.972Z,14.80
2023-04-29T16:01:53.320Z,14.60
2023-04-29T16:04:21.034Z,14.50
2023-04-29T16:06:49.477Z,14.50
2023-04-29T16:09:17.310Z,14.50
2023-04-29T16:11:45.018Z,14.50
2023-04-29T16:14:12.772Z,14.50
2023-04-29T16:16:40.949Z,14.50
2023-04-29T16:19:09.272Z,14.50
2023-04-29T16:21:37.175Z,14.50
2023-04-29T16:24:05.744Z,14.40
2023-04-29T16:26:34.063Z,14.50
2023-04-29T16:29:01.816Z,14.50
2023-04-29T16:31:29.707Z,14.50
2023-04-29T16:33:57.501Z,14.50
2023-04-29T16:36:26.427Z,14.40
2023-04-29T16:38:55.023Z,14.40
2023-04-29T16:41:23.631Z,14.40
2023-04-29T16:43:51.462Z,14.40
2023-04-29T16:46:19.342Z,14.30
2023-04-29T16:48:47.231Z,14.20
2023-04-29T16:51:14.888Z,14.10
2023-04-29T16:53:42.942Z,14.10
2023-04-29T16:56:11.250Z,14.10
2023-04-29T16:58:39.141Z,14.00
2023-04-29T17:01:07.946Z,14.00
2023-04-29T17:03:36.567Z,14.00
2023-04-29T17:06:06.095Z,13.90
2023-04-29T17:08:34.206Z,13.90
2023-04-29T17:11:04.962Z,13.90
2023-04-29T17:13:32.892Z,13.90
2023-04-29T17:16:00.755Z,13.80
2023-04-29T17:18:28.614Z,13.80
2023-04-29T17:20:56.539Z,13.80
2023-04-29T17:23:24.579Z,13.70
2023-04-29T17:25:52.486Z,13.70
2023-04-29T17:28:20.231Z,13.70
2023-04-29T17:30:48.017Z,13.70
2023-04-29T17:33:17.660Z,13.70
2023-04-29T17:35:46.352Z,13.60
2023-04-29T17:38:14.354Z,13.60
2023-04-29T17:40:42.120Z,13.60
2023-04-29T17:43:09.802Z,13.60
2023-04-29T17:45:41.410Z,13.60
2023-04-29T17:48:10.321Z,13.60
2023-04-29T17:50:40.923Z,13.50
2023-04-29T17:53:08.657Z,13.40
2023-04-29T17:55:41.061Z,13.40
2023-04-29T17:58:09.101Z,13.30
2023-04-29T18:00:38.127Z,13.20
2023-04-29T18:03:06.096Z,13.10
2023-04-29T18:05:34.250Z,13.00
2023-04-29T18:08:01.963Z,13.00
2023-04-29T18:10:30.034Z,13.00
2023-04-29T18:12:58.080Z,13.00
2023-04-29T18:15:25.798Z,12.90
2023-04-29T18:17:54.652Z,12.90
2023-04-29T18:20:22.801Z,12.90
2023-04-29T18:22:50.836Z,12.80
2023-04-29T18:25:18.580Z,12.60
2023-04-29T18:27:46.654Z,12.50
2023-04-29T18:30:14.670Z,12.40
2023-04-29T18:32:42.769Z,12.20
2023-04-29T18:35:10.981Z,12.10
2023-04-29T18:37:38.736Z,11.90
2023-04-29T18:40:08.149Z,11.80
2023-04-29T18:42:35.879Z,11.70
2023-04-29T18:45:03.895Z,11.60
2023-04-29T18:47:31.720Z,11.40
2023-04-29T18:49:59.589Z,11.30
2023-04-29T18:52:27.815Z,11.20
2023-04-29T18:54:55.578Z,11.00
2023-04-29T18:57:23.590Z,11.00
2023-04-29T18:59:52.902Z,10.90
2023-04-29T19:02:20.982Z,10.80
2023-04-29T19:04:48.900Z,10.80
2023-04-29T19:07:17.015Z,10.60
2023-04-29T19:09:44.760Z,10.50
2023-04-29T19:12:12.905Z,10.30
2023-04-29T19:14:41.156Z,10.30
2023-04-29T19:17:08.918Z,10.20
2023-04-29T19:19:37.345Z,10.10
2023-04-29T19:22:05.554Z,10.00
2023-04-29T19:24:35.322Z,10.30
2023-04-29T19:27:06.873Z,10.20
2023-04-29T19:29:34.951Z,10.20
2023-04-29T19:32:03.697Z,10.10
2023-04-29T19:34:31.767Z,10.20
2023-04-29T19:36:59.502Z,10.10
2023-04-29T19:39:28.833Z,10.10
2023-04-29T19:41:58.305Z,10.10
2023-04-29T19:44:26.455Z,10.00
2023-04-29T19:46:54.781Z,9.90
2023-04-29T19:49:22.502Z,9.80
2023-04-29T19:51:51.754Z,9.80
2023-04-29T19:54:19.814Z,9.80
2023-04-29T19:56:47.690Z,9.80
2023-04-29T19:59:15.419Z,9.80
2023-04-29T20:01:43.259Z,9.80
2023-04-29T20:04:12.777Z,9.80
2023-04-29T20:06:41.066Z,9.80
2023-04-29T20:09:09.563Z,9.80
2023-04-29T20:11:37.402Z,9.80
2023-04-29T20:14:05.313Z,9.90
2023-04-29T20:16:35.696Z,9.90
2023-04-29T20:19:03.677Z,10.00
2023-04-29T20:21:31.650Z,10.30
2023-04-29T20:23:59.470Z,10.60
2023-04-29T20:26:27.453Z,10.80
2023-04-29T20:28:55.327Z,10.90
2023-04-29T20:31:23.043Z,10.90
2023-04-29T20:33:50.888Z,11.10
2023-04-29T20:36:18.748Z,11.10
2023-04-29T20:38:48.777Z,11.10
2023-04-29T20:41:16.696Z,11.00
2023-04-29T20:43:44.465Z,10.80
2023-04-29T20:46:16.137Z,10.80
2023-04-29T20:48:43.940Z,10.70
2023-04-29T20:51:12.790Z,10.70
2023-04-29T20:53:40.765Z,10.60
2023-04-29T20:56:11.862Z,10.60
2023-04-29T20:58:39.798Z,10.60
2023-04-29T21:01:08.306Z,10.70
2023-04-29T21:03:36.533Z,10.60
2023-04-29T21:06:05.005Z,10.70
2023-04-29T21:08:32.743Z,10.60
2023-04-29T21:11:00.363Z,10.50
2023-04-29T21:13:27.951Z,10.40
2023-04-29T21:15:55.828Z,10.40
2023-04-29T21:18:23.904Z,10.40
2023-04-29T21:20:51.802Z,10.30
2023-04-29T21:23:19.877Z,10.20
2023-04-29T21:25:47.682Z,10.20
2023-04-29T21:28:16.918Z,10.40
2023-04-29T21:30:45.285Z,10.50
2023-04-29T21:33:13.024Z,10.40
2023-04-29T21:35:47.377Z,10.40
2023-04-29T21:38:16.774Z,10.40
2023-04-29T21:40:48.451Z,10.40
2023-04-29T21:43:18.325Z,10.40
2023-04-29T21:45:46.696Z,10.30
2023-04-29T21:48:23.360Z,10.50
2023-04-29T21:50:51.532Z,10.70
2023-04-29T21:53:19.305Z,10.70
2023-04-29T21:55:46.974Z,10.50
2023-04-29T21:58:16.215Z,10.30
2023-04-29T22:00:58.011Z,10.20
2023-04-29T22:03:26.092Z,10.10
2023-04-29T22:05:53.812Z,10.00
2023-04-29T22:08:21.802Z,9.80
2023-04-29T22:10:50.131Z,9.60
2023-04-29T22:13:17.998Z,9.50
2023-04-29T22:15:46.006Z,9.40
2023-04-29T22:18:14.002Z,9.40
2023-04-29T22:20:41.758Z,9.30
2023-04-29T22:23:09.632Z,9.40
2023-04-29T22:25:37.449Z,9.40
2023-04-29T22:28:05.342Z,9.50
2023-04-29T22:30:33.098Z,9.50
2023-04-29T22:33:01.064Z,9.60
2023-04-29T22:35:28.968Z,9.80
2023-04-29T22:37:56.817Z,9.80
2023-04-29T22:40:24.457Z,9.80
2023-04-29T22:42:52.274Z,9.80
2023-04-29T22:45:20.054Z,9.80
2023-04-29T22:47:47.916Z,9.70
2023-04-29T22:50:15.984Z,9.60
2023-04-29T22:52:43.697Z,9.60
2023-04-29T22:55:12.026Z,9.50
2023-04-29T22:57:39.767Z,9.50
2023-04-29T23:00:09.402Z,9.50
2023-04-29T23:02:37.311Z,9.40
2023-04-29T23:05:06.672Z,9.40
2023-04-29T23:07:34.671Z,9.40
2023-04-29T23:10:02.347Z,9.20
2023-04-29T23:12:30.663Z,9.10
2023-04-29T23:14:58.319Z,9.00
2023-04-29T23:17:25.976Z,9.00
2023-04-29T23:19:54.021Z,9.00
2023-04-29T23:22:22.697Z,9.10
2023-04-29T23:24:50.763Z,9.00
2023-04-29T23:27:18.406Z,8.80
2023-04-29T23:29:46.396Z,8.70
2023-04-29T23:32:14.082Z,8.60
2023-04-29T23:34:42.178Z,8.50
2023-04-29T23:37:10.555Z,8.30
2023-04-29T23:39:38.605Z,8.10
2023-04-29T23:42:06.997Z,7.90
2023-04-29T23:44:35.296Z,7.70
2023-04-29T23:47:03.588Z,7.60
2023-04-29T23:49:32.305Z,7.50
2023-04-29T23:52:00.075Z,7.40
2023-04-29T23:54:28.850Z,7.30
2023-04-29T23:56:56.818Z,7.20
2023-04-29T23:59:25.158Z,7.10
